METAR Data
IDs: Format: Raw Decoded Include TAF

Data at: 0731 UTC 23 Oct 2018

METAR for:KDAY (Dayton/Cox Intl, OH, US)
Text:KDAY 230656Z 24010KT 10SM CLR 07/03 A3011 RMK AO2 SLP197 T00670028
Temperature: 6.7°C ( 44°F)
Dewpoint: 2.8°C ( 37°F) [RH = 76%]
Pressure (altimeter):30.11 inches Hg (1019.7 mb) [Sea level pressure: 1019.7 mb]
Winds:from the WSW (240 degrees) at 12 MPH (10 knots; 5.1 m/s)
Visibility:10 or more sm (16+ km)
Ceiling:at least 12,000 feet AGL
Clouds:sky clear below 12,000 feet AGL